Time;durP1;ratioP1;P1;durP2;ratioP2;P2;SDS_P1;SDS_P2;PMS_P1;PMS_P2;Temp;Humidity;BMP_temperature;BMP_pressure;BME280_temperature;BME280_humidity;BME280_pressure;Samples;Min_cycle;Max_cycle;Signal;HPM_P1;HPM_P2
2022/02/15 00:00:47;;;;;;;4.67;3.77;;;;;;;;;;2049512;29;20163;-60
2022/02/15 00:01:47;;;;;;;7.40;3.63;;;;;;;;;;2048175;29;20716;-60
2022/02/15 00:02:47;;;;;;;5.87;3.50;;;;;;;;;;2049500;28;20644;-60
2022/02/15 00:03:48;;;;;;;5.15;3.92;;;;;;;;;;2048916;28;20605;-59
2022/02/15 00:04:48;;;;;;;3.97;3.60;;;;;;;;;;2048525;28;20730;-60
2022/02/15 00:05:48;;;;;;;8.03;3.83;;;;;;;;;;2049379;28;20187;-59
2022/02/15 00:06:48;;;;;;;4.20;3.40;;;;;;;;;;2049309;28;20309;-57
2022/02/15 00:07:49;;;;;;;7.95;3.85;;;;;;;;;;2048924;28;20222;-61
2022/02/15 00:08:49;;;;;;;6.43;3.95;;;;;;;;;;2040721;29;20570;-59
2022/02/15 00:09:49;;;;;;;4.80;3.67;;;;;;;;;;2040682;29;20653;-61
2022/02/15 00:10:49;;;;;;;5.57;4.43;;;;;;;;;;2049101;29;20552;-58
2022/02/15 00:11:50;;;;;;;4.32;3.33;;;;;;;;;;2048924;28;21007;-60
2022/02/15 00:12:50;;;;;;;5.03;3.83;;;;;;;;;;2048909;28;20182;-61
2022/02/15 00:13:50;;;;;;;4.97;3.47;;;;;;;;;;2049150;28;20720;-59
2022/02/15 00:14:50;;;;;;;5.88;4.10;;;;;;;;;;2046226;28;20560;-58
2022/02/15 00:15:51;;;;;;;8.43;4.45;;;;;;;;;;2049053;28;20542;-60
2022/02/15 00:16:51;;;;;;;4.88;3.80;;;;;;;;;;2042387;28;20251;-59
2022/02/15 00:17:51;;;;;;;4.03;3.72;;;;;;;;;;2046354;29;20180;-61
2022/02/15 00:18:52;;;;;;;6.25;3.30;;;;;;;;;;2050519;29;20200;-61
2022/02/15 00:19:52;;;;;;;4.13;3.03;;;;;;;;;;2052602;28;20167;-61
2022/02/15 00:20:52;;;;;;;5.15;3.80;;;;;;;;;;2044880;28;20422;-61
2022/02/15 00:21:52;;;;;;;9.93;4.10;;;;;;;;;;2050014;28;20177;-59
2022/02/15 00:22:53;;;;;;;5.93;3.85;;;;;;;;;;2048985;28;20229;-61
2022/02/15 00:23:53;;;;;;;5.05;3.58;;;;;;;;;;2048826;28;20531;-61
2022/02/15 00:24:53;;;;;;;5.45;3.90;;;;;;;;;;2043586;29;20813;-59
2022/02/15 00:25:54;;;;;;;5.57;3.88;;;;;;;;;;2047407;28;20658;-57
2022/02/15 00:26:54;;;;;;;7.13;3.90;;;;;;;;;;2044522;29;20496;-59
2022/02/15 00:27:54;;;;;;;9.57;4.00;;;;;;;;;;2047663;28;20178;-60
2022/02/15 00:28:56;;;;;;;6.50;3.78;;;;;;;;;;2043998;29;20682;-61
2022/02/15 00:29:57;;;;;;;5.40;3.47;;;;;;;;;;2047434;28;20167;-60
2022/02/15 00:30:57;;;;;;;7.43;3.75;;;;;;;;;;2043431;29;20191;-60
2022/02/15 00:31:58;;;;;;;8.80;3.90;;;;;;;;;;2046205;29;20589;-59
2022/02/15 00:32:58;;;;;;;6.03;3.40;;;;;;;;;;2043378;29;20174;-58
2022/02/15 00:33:59;;;;;;;6.40;4.15;;;;;;;;;;2038017;29;20226;-56
2022/02/15 00:34:59;;;;;;;6.82;3.65;;;;;;;;;;2035395;29;20700;-60
2022/02/15 00:35:59;;;;;;;4.90;3.53;;;;;;;;;;2040098;29;20184;-59
2022/02/15 00:37:00;;;;;;;8.47;3.73;;;;;;;;;;2040260;29;20306;-60
2022/02/15 00:38:00;;;;;;;7.03;4.18;;;;;;;;;;2048370;29;20186;-58
2022/02/15 00:39:00;;;;;;;8.32;4.55;;;;;;;;;;2055976;28;20174;-59
2022/02/15 00:40:01;;;;;;;9.13;4.03;;;;;;;;;;2055355;28;20178;-59
2022/02/15 00:41:03;;;;;;;5.20;3.75;;;;;;;;;;2051821;28;20178;-58
2022/02/15 00:42:03;;;;;;;5.43;3.10;;;;;;;;;;2055444;28;20206;-60
2022/02/15 00:43:04;;;;;;;8.48;4.18;;;;;;;;;;2044021;28;20175;-57
2022/02/15 00:44:05;;;;;;;11.57;4.30;;;;;;;;;;2047276;28;20656;-60
2022/02/15 00:45:05;;;;;;;8.20;3.97;;;;;;;;;;2048697;28;20706;-60
2022/02/15 00:46:06;;;;;;;4.50;4.10;;;;;;;;;;2045987;29;20179;-60
2022/02/15 00:47:06;;;;;;;5.95;4.10;;;;;;;;;;2048261;29;20951;-60
2022/02/15 00:48:06;;;;;;;6.72;3.70;;;;;;;;;;2044012;28;20188;-58
2022/02/15 00:49:07;;;;;;;5.85;4.18;;;;;;;;;;2044683;29;20173;-59
2022/02/15 00:50:07;;;;;;;7.07;3.95;;;;;;;;;;2045562;29;20183;-60
2022/02/15 00:51:07;;;;;;;9.50;4.63;;;;;;;;;;2048610;29;20175;-58
2022/02/15 00:52:08;;;;;;;5.85;4.03;;;;;;;;;;2046247;29;20170;-63
2022/02/15 00:53:08;;;;;;;4.90;4.20;;;;;;;;;;2048543;28;20178;-60
2022/02/15 00:54:08;;;;;;;7.25;4.55;;;;;;;;;;2044864;29;20179;-62
2022/02/15 00:55:09;;;;;;;7.03;4.50;;;;;;;;;;2040454;29;20231;-60
2022/02/15 00:56:10;;;;;;;5.60;4.60;;;;;;;;;;2048744;29;20171;-60
2022/02/15 00:57:10;;;;;;;7.03;4.72;;;;;;;;;;2044882;29;20191;-60
2022/02/15 00:58:10;;;;;;;7.78;4.53;;;;;;;;;;2056823;28;20264;-61
2022/02/15 00:59:11;;;;;;;6.00;4.93;;;;;;;;;;2048436;28;20199;-59
2022/02/15 01:00:12;;;;;;;5.40;4.57;;;;;;;;;;2040509;29;20194;-60
2022/02/15 01:01:13;;;;;;;10.85;5.30;;;;;;;;;;2046450;29;20757;-61
2022/02/15 01:02:14;;;;;;;5.63;4.53;;;;;;;;;;2053746;28;20180;-60
2022/02/15 01:03:14;;;;;;;9.07;4.85;;;;;;;;;;2048664;29;20555;-62
2022/02/15 01:04:14;;;;;;;6.53;5.18;;;;;;;;;;2035170;29;20196;-57
2022/02/15 01:05:15;;;;;;;7.05;5.50;;;;;;;;;;2043224;29;20179;-59
2022/02/15 01:06:15;;;;;;;7.28;5.20;;;;;;;;;;2046592;29;20230;-59
2022/02/15 01:07:15;;;;;;;6.57;5.65;;;;;;;;;;2044888;28;20571;-56
2022/02/15 01:08:16;;;;;;;6.22;5.55;;;;;;;;;;2053494;28;20166;-59
2022/02/15 01:09:16;;;;;;;8.07;5.53;;;;;;;;;;2051622;28;20282;-59
2022/02/15 01:10:20;;;;;;;6.43;5.80;;;;;;;;;;2047342;29;20179;-60
2022/02/15 01:11:20;;;;;;;6.63;5.95;;;;;;;;;;2047822;29;20683;-57
2022/02/15 01:12:20;;;;;;;6.20;5.55;;;;;;;;;;2049443;28;20175;-59
2022/02/15 01:13:21;;;;;;;7.97;6.65;;;;;;;;;;2046809;29;20242;-60
2022/02/15 01:14:21;;;;;;;7.60;6.07;;;;;;;;;;2045768;29;20259;-59
2022/02/15 01:15:21;;;;;;;6.25;5.57;;;;;;;;;;2048295;28;20183;-59
2022/02/15 01:16:22;;;;;;;9.50;5.40;;;;;;;;;;2056643;28;20253;-59
2022/02/15 01:17:22;;;;;;;7.47;6.68;;;;;;;;;;2055820;28;20269;-58
2022/02/15 01:18:26;;;;;;;6.10;5.50;;;;;;;;;;2049345;28;20233;-59
2022/02/15 01:19:26;;;;;;;7.75;5.95;;;;;;;;;;2048282;28;20647;-59
2022/02/15 01:20:26;;;;;;;6.97;6.03;;;;;;;;;;2048502;28;20167;-59
2022/02/15 01:21:26;;;;;;;7.07;6.33;;;;;;;;;;2048231;29;20265;-60
2022/02/15 01:22:27;;;;;;;8.73;6.95;;;;;;;;;;2048404;29;20170;-60
2022/02/15 01:23:27;;;;;;;9.35;6.97;;;;;;;;;;2048738;29;20257;-58
2022/02/15 01:24:27;;;;;;;7.00;6.30;;;;;;;;;;2044432;28;20204;-53
2022/02/15 01:25:28;;;;;;;8.32;6.72;;;;;;;;;;2056200;28;20178;-60
2022/02/15 01:26:28;;;;;;;8.82;6.72;;;;;;;;;;2052242;28;20238;-59
2022/02/15 01:27:28;;;;;;;9.00;6.70;;;;;;;;;;2048352;29;20190;-60
2022/02/15 01:28:34;;;;;;;11.02;7.18;;;;;;;;;;2043386;29;20259;-60
2022/02/15 01:29:35;;;;;;;10.88;7.68;;;;;;;;;;2040262;29;20172;-60
2022/02/15 01:30:35;;;;;;;8.85;6.90;;;;;;;;;;2040342;29;20185;-58
2022/02/15 01:31:36;;;;;;;7.82;6.95;;;;;;;;;;2035195;29;20187;-59
2022/02/15 01:32:36;;;;;;;8.68;6.80;;;;;;;;;;2039820;29;20243;-59
2022/02/15 01:33:37;;;;;;;8.23;6.45;;;;;;;;;;2048253;29;20181;-60
2022/02/15 01:34:38;;;;;;;7.70;6.65;;;;;;;;;;2055890;28;20643;-58
2022/02/15 01:35:40;;;;;;;8.80;6.22;;;;;;;;;;2047579;28;20560;-60
2022/02/15 01:36:43;;;;;;;8.60;6.37;;;;;;;;;;2041547;29;20214;-60
2022/02/15 01:37:46;;;;;;;7.57;6.78;;;;;;;;;;2040072;29;20180;-60
2022/02/15 01:38:46;;;;;;;7.07;6.45;;;;;;;;;;2032126;29;20701;-58
2022/02/15 01:39:47;;;;;;;12.52;6.90;;;;;;;;;;2039475;29;20191;-60
2022/02/15 01:40:47;;;;;;;9.55;6.35;;;;;;;;;;2041544;29;20653;-58
2022/02/15 01:41:47;;;;;;;9.88;6.85;;;;;;;;;;2040131;29;20211;-60
2022/02/15 01:42:48;;;;;;;10.73;7.28;;;;;;;;;;2048456;29;20186;-57
2022/02/15 01:43:49;;;;;;;8.88;6.97;;;;;;;;;;2056430;28;20678;-58
2022/02/15 01:44:49;;;;;;;8.23;6.78;;;;;;;;;;2046953;29;20237;-55
2022/02/15 01:45:51;;;;;;;7.95;6.78;;;;;;;;;;2048487;28;20192;-55
2022/02/15 01:46:51;;;;;;;8.68;6.32;;;;;;;;;;2055557;28;20808;-55
2022/02/15 01:47:52;;;;;;;8.13;6.93;;;;;;;;;;2043778;29;20187;-56
2022/02/15 01:48:52;;;;;;;7.55;6.50;;;;;;;;;;2042874;29;20199;-58
2022/02/15 01:49:56;;;;;;;9.45;7.20;;;;;;;;;;2047900;28;20202;-59
2022/02/15 01:50:58;;;;;;;9.57;7.20;;;;;;;;;;2048560;28;20175;-60
2022/02/15 01:51:59;;;;;;;11.88;7.95;;;;;;;;;;2040009;29;20183;-61
2022/02/15 01:52:59;;;;;;;9.23;7.35;;;;;;;;;;2048272;28;20175;-58
2022/02/15 01:54:00;;;;;;;8.80;6.53;;;;;;;;;;2055429;28;20166;-54
2022/02/15 01:55:02;;;;;;;8.95;7.65;;;;;;;;;;2040152;29;20167;-59
2022/02/15 01:56:05;;;;;;;9.00;8.10;;;;;;;;;;2040507;29;20217;-57
2022/02/15 01:57:08;;;;;;;8.75;7.20;;;;;;;;;;2054687;28;20225;-56
2022/02/15 01:58:09;;;;;;;7.72;6.85;;;;;;;;;;2048510;29;20182;-59
2022/02/15 01:59:14;;;;;;;10.55;6.88;;;;;;;;;;2041383;29;20180;-60
2022/02/15 02:00:16;;;;;;;7.85;7.05;;;;;;;;;;2040215;29;20214;-60
2022/02/15 02:01:19;;;;;;;7.43;6.60;;;;;;;;;;2046373;29;20171;-60
2022/02/15 02:02:31;;;;;;;8.07;7.13;;;;;;;;;;2050144;28;20199;-61
2022/02/15 02:03:34;;;;;;;9.65;7.03;;;;;;;;;;2044590;29;20176;-59
2022/02/15 02:05:55;;;;;;;8.20;7.40;;;;;;;;;;2047833;29;20151;-59
2022/02/15 02:06:57;;;;;;;10.05;7.97;;;;;;;;;;2047622;29;20195;-58
2022/02/15 02:08:01;;;;;;;11.73;7.65;;;;;;;;;;2032084;29;20181;-59
2022/02/15 02:09:06;;;;;;;10.90;8.18;;;;;;;;;;2033617;29;20191;-56
2022/02/15 02:10:07;;;;;;;8.90;8.00;;;;;;;;;;2039364;29;20223;-56
2022/02/15 02:11:08;;;;;;;10.52;8.05;;;;;;;;;;2039873;29;20171;-57
2022/02/15 02:12:17;;;;;;;9.35;7.20;;;;;;;;;;2040756;29;20700;-58
2022/02/15 02:13:28;;;;;;;10.32;8.20;;;;;;;;;;2032834;29;20656;-53
2022/02/15 02:14:28;;;;;;;10.98;7.65;;;;;;;;;;2032476;29;20188;-54
2022/02/15 02:15:28;;;;;;;9.43;7.43;;;;;;;;;;2044482;29;20181;-56
2022/02/15 02:16:48;;;;;;;8.52;6.85;;;;;;;;;;2037663;29;20195;-59
2022/02/15 02:17:52;;;;;;;15.77;8.00;;;;;;;;;;2048181;29;20182;-59
2022/02/15 02:18:52;;;;;;;8.43;7.47;;;;;;;;;;2046617;29;20187;-56
2022/02/15 02:20:00;;;;;;;11.35;8.63;;;;;;;;;;2047685;29;20183;-57
2022/02/15 02:21:01;;;;;;;14.68;9.40;;;;;;;;;;2047371;29;20175;-56
2022/02/15 02:22:01;;;;;;;10.23;8.93;;;;;;;;;;2048909;28;20651;-55
2022/02/15 02:23:02;;;;;;;9.23;8.27;;;;;;;;;;2047513;29;20187;-57
2022/02/15 02:24:03;;;;;;;8.88;7.75;;;;;;;;;;2039739;29;20227;-58
2022/02/15 02:25:04;;;;;;;12.18;8.48;;;;;;;;;;2048068;29;20207;-59
2022/02/15 02:26:04;;;;;;;12.15;9.15;;;;;;;;;;2037526;29;20176;-56
2022/02/15 02:27:15;;;;;;;11.88;8.70;;;;;;;;;;2047744;29;20218;-54
2022/02/15 02:28:16;;;;;;;10.05;8.45;;;;;;;;;;2047954;28;20163;-55
2022/02/15 02:29:17;;;;;;;9.93;8.87;;;;;;;;;;2053840;28;20282;-55
2022/02/15 02:30:20;;;;;;;10.80;8.95;;;;;;;;;;2055285;28;20198;-53
2022/02/15 02:31:27;;;;;;;10.50;8.90;;;;;;;;;;2047759;29;20234;-56
2022/02/15 02:32:35;;;;;;;13.18;8.73;;;;;;;;;;2034828;29;20558;-55
2022/02/15 02:33:36;;;;;;;14.15;9.77;;;;;;;;;;2043680;28;20242;-57
2022/02/15 02:34:37;;;;;;;10.85;8.88;;;;;;;;;;2056229;28;20162;-60
2022/02/15 02:35:37;;;;;;;10.00;9.00;;;;;;;;;;2049170;29;20671;-60
2022/02/15 02:36:44;;;;;;;12.38;9.13;;;;;;;;;;2048003;29;20183;-61
2022/02/15 02:37:46;;;;;;;13.75;9.43;;;;;;;;;;2048201;29;20183;-60
2022/02/15 02:38:46;;;;;;;14.68;10.30;;;;;;;;;;2047009;29;20583;-60
2022/02/15 02:39:47;;;;;;;11.20;9.85;;;;;;;;;;2040084;29;20258;-60
2022/02/15 02:40:48;;;;;;;14.45;9.38;;;;;;;;;;2040208;29;20231;-59
2022/02/15 02:41:48;;;;;;;11.15;9.77;;;;;;;;;;2041299;29;20187;-59
2022/02/15 02:42:48;;;;;;;11.40;9.13;;;;;;;;;;2047747;29;20188;-60
2022/02/15 02:43:49;;;;;;;12.88;8.57;;;;;;;;;;2039971;29;20220;-61
2022/02/15 02:44:49;;;;;;;13.50;10.32;;;;;;;;;;2034354;29;20225;-61
2022/02/15 02:45:51;;;;;;;13.35;8.95;;;;;;;;;;2039358;29;20175;-60
2022/02/15 02:46:52;;;;;;;10.25;9.20;;;;;;;;;;2040294;29;20278;-61
2022/02/15 02:47:55;;;;;;;12.53;8.30;;;;;;;;;;2040133;29;20175;-60
2022/02/15 02:48:56;;;;;;;10.57;8.25;;;;;;;;;;2043539;29;20177;-60
2022/02/15 02:49:57;;;;;;;12.18;9.57;;;;;;;;;;2053107;28;20203;-60
2022/02/15 02:50:58;;;;;;;10.20;9.20;;;;;;;;;;2049613;28;20178;-61
2022/02/15 02:52:00;;;;;;;13.90;9.50;;;;;;;;;;2043404;28;20167;-58
2022/02/15 02:53:00;;;;;;;9.90;8.93;;;;;;;;;;2038490;28;20205;-59
2022/02/15 02:54:04;;;;;;;12.97;9.43;;;;;;;;;;2047559;29;20167;-60
2022/02/15 02:55:08;;;;;;;13.77;9.25;;;;;;;;;;2036373;29;20247;-58
2022/02/15 02:56:09;;;;;;;11.52;9.65;;;;;;;;;;2043864;29;20373;-60
2022/02/15 02:57:12;;;;;;;9.27;8.30;;;;;;;;;;2054939;28;20197;-58
2022/02/15 02:58:13;;;;;;;11.60;8.93;;;;;;;;;;2055594;28;20341;-59
2022/02/15 02:59:14;;;;;;;12.50;9.03;;;;;;;;;;2048772;28;20178;-60
2022/02/15 03:00:15;;;;;;;10.43;8.63;;;;;;;;;;2049158;28;20277;-60
2022/02/15 03:01:34;;;;;;;11.15;9.15;;;;;;;;;;2048126;29;20174;-59
2022/02/15 03:02:35;;;;;;;9.68;8.57;;;;;;;;;;2041015;29;20262;-60
2022/02/15 03:03:36;;;;;;;12.70;9.50;;;;;;;;;;2048974;28;20179;-60
2022/02/15 03:04:36;;;;;;;10.65;9.55;;;;;;;;;;2056236;28;20253;-58
2022/02/15 03:05:36;;;;;;;9.77;8.70;;;;;;;;;;2041704;28;20211;-57
2022/02/15 03:06:37;;;;;;;10.35;8.75;;;;;;;;;;2040229;29;20171;-58
2022/02/15 03:07:37;;;;;;;11.75;9.57;;;;;;;;;;2048806;29;20171;-60
2022/02/15 03:08:37;;;;;;;11.80;9.43;;;;;;;;;;2045866;29;20179;-58
2022/02/15 03:09:38;;;;;;;12.30;8.85;;;;;;;;;;2041577;29;20207;-57
2022/02/15 03:10:38;;;;;;;9.30;8.40;;;;;;;;;;2048859;29;20233;-57
2022/02/15 03:11:42;;;;;;;12.45;8.52;;;;;;;;;;2040922;29;20313;-62
2022/02/15 03:12:42;;;;;;;12.10;8.95;;;;;;;;;;2041384;29;20180;-59
2022/02/15 03:13:42;;;;;;;9.88;8.88;;;;;;;;;;2048665;29;20182;-59
2022/02/15 03:14:49;;;;;;;11.48;8.77;;;;;;;;;;2038597;29;20187;-60
2022/02/15 03:15:50;;;;;;;13.15;8.73;;;;;;;;;;2041841;29;20233;-65
2022/02/15 03:16:51;;;;;;;10.02;8.52;;;;;;;;;;2041109;29;20712;-59
2022/02/15 03:17:51;;;;;;;9.90;8.90;;;;;;;;;;2049628;29;20197;-59
2022/02/15 03:18:51;;;;;;;10.07;8.52;;;;;;;;;;2040461;29;20241;-59
2022/02/15 03:19:52;;;;;;;9.50;8.43;;;;;;;;;;2040890;29;20222;-51
2022/02/15 03:20:53;;;;;;;11.07;9.27;;;;;;;;;;2050966;28;20187;-60
2022/02/15 03:21:53;;;;;;;10.07;9.07;;;;;;;;;;2046684;29;20190;-56
2022/02/15 03:22:54;;;;;;;9.93;8.73;;;;;;;;;;2041276;29;20664;-60
2022/02/15 03:23:54;;;;;;;14.10;8.68;;;;;;;;;;2036233;29;20260;-58
2022/02/15 03:24:54;;;;;;;10.52;8.10;;;;;;;;;;2043305;29;20788;-57
2022/02/15 03:25:55;;;;;;;12.70;9.75;;;;;;;;;;2048998;29;20682;-59
2022/02/15 03:26:57;;;;;;;12.98;8.02;;;;;;;;;;2049669;28;20592;-60
2022/02/15 03:27:57;;;;;;;12.55;8.80;;;;;;;;;;2055477;28;20194;-57
2022/02/15 03:29:01;;;;;;;10.02;8.90;;;;;;;;;;2045005;29;20538;-58
2022/02/15 03:30:03;;;;;;;12.48;8.85;;;;;;;;;;2048920;28;20183;-60
2022/02/15 03:31:10;;;;;;;10.80;7.88;;;;;;;;;;2047811;29;20646;-60
2022/02/15 03:32:11;;;;;;;11.15;8.75;;;;;;;;;;2047375;29;20175;-59
2022/02/15 03:33:12;;;;;;;11.55;9.32;;;;;;;;;;2041455;29;20170;-59
2022/02/15 03:34:13;;;;;;;11.75;8.73;;;;;;;;;;2035522;29;20223;-58
2022/02/15 03:35:16;;;;;;;9.83;8.53;;;;;;;;;;2047073;28;20174;-57
2022/02/15 03:36:21;;;;;;;12.73;9.10;;;;;;;;;;2046048;29;20695;-55
2022/02/15 03:37:31;;;;;;;11.47;9.67;;;;;;;;;;2063017;23;20679;-59
2022/02/15 03:38:33;;;;;;;9.90;8.32;;;;;;;;;;2038341;29;20176;-57
2022/02/15 03:39:35;;;;;;;11.43;8.68;;;;;;;;;;2043359;28;20620;-57
2022/02/15 03:43:29;;;;;;;10.45;8.07;;;;;;;;;;2044094;29;20165;-57
2022/02/15 03:44:34;;;;;;;9.48;8.02;;;;;;;;;;2033524;29;20285;-57
2022/02/15 03:45:39;;;;;;;9.48;8.40;;;;;;;;;;2042709;28;20284;-58
2022/02/15 03:46:44;;;;;;;10.90;8.75;;;;;;;;;;2048990;28;20262;-57
2022/02/15 03:47:44;;;;;;;11.70;8.90;;;;;;;;;;2049441;28;20203;-58
2022/02/15 03:48:44;;;;;;;10.25;9.25;;;;;;;;;;2049046;28;20171;-57
2022/02/15 03:49:45;;;;;;;8.75;7.93;;;;;;;;;;2050167;28;20712;-58
2022/02/15 03:50:47;;;;;;;10.10;8.40;;;;;;;;;;2052504;28;20179;-59
2022/02/15 03:51:48;;;;;;;10.55;9.05;;;;;;;;;;2037574;29;20172;-58
2022/02/15 03:52:49;;;;;;;10.57;8.55;;;;;;;;;;2040997;29;20188;-59
2022/02/15 03:53:49;;;;;;;9.02;8.13;;;;;;;;;;2051442;28;20230;-57
2022/02/15 03:54:50;;;;;;;9.45;8.52;;;;;;;;;;2049061;28;20210;-59
2022/02/15 03:55:51;;;;;;;8.85;8.00;;;;;;;;;;2041085;29;20600;-60
2022/02/15 03:56:52;;;;;;;10.73;8.50;;;;;;;;;;2033752;29;20673;-57
2022/02/15 03:57:53;;;;;;;9.75;8.80;;;;;;;;;;2041176;29;20342;-58
2022/02/15 03:58:54;;;;;;;9.03;8.13;;;;;;;;;;2040779;29;20267;-58
2022/02/15 03:59:54;;;;;;;9.32;8.52;;;;;;;;;;2049322;28;20362;-57
2022/02/15 04:01:01;;;;;;;10.50;8.63;;;;;;;;;;2048450;28;20186;-60
2022/02/15 04:02:03;;;;;;;8.70;7.80;;;;;;;;;;2038060;29;20212;-58
2022/02/15 04:03:04;;;;;;;8.57;7.78;;;;;;;;;;2044588;28;20234;-57
2022/02/15 04:04:05;;;;;;;10.65;8.23;;;;;;;;;;2052998;28;20170;-59
2022/02/15 04:05:07;;;;;;;8.48;6.78;;;;;;;;;;2046250;29;20251;-58
2022/02/15 04:06:07;;;;;;;9.13;8.32;;;;;;;;;;2041569;29;20602;-60
2022/02/15 04:07:09;;;;;;;9.10;7.82;;;;;;;;;;2028219;29;20181;-59
2022/02/15 04:08:09;;;;;;;10.27;7.68;;;;;;;;;;2037865;29;20255;-58
2022/02/15 04:09:10;;;;;;;9.13;8.05;;;;;;;;;;2032684;28;20178;-57
2022/02/15 04:10:11;;;;;;;9.87;7.63;;;;;;;;;;2031897;29;20670;-57
2022/02/15 04:11:12;;;;;;;9.77;8.10;;;;;;;;;;2040457;29;20178;-59
2022/02/15 04:12:13;;;;;;;8.43;7.63;;;;;;;;;;2038593;29;20204;-57
2022/02/15 04:13:16;;;;;;;8.53;7.63;;;;;;;;;;2046626;28;20183;-57
2022/02/15 04:14:17;;;;;;;8.33;7.60;;;;;;;;;;2056982;28;20178;-58
2022/02/15 04:15:18;;;;;;;9.35;8.40;;;;;;;;;;2056192;28;20530;-59
2022/02/15 04:16:24;;;;;;;8.35;7.55;;;;;;;;;;2048355;28;20753;-57
2022/02/15 04:17:25;;;;;;;8.13;7.43;;;;;;;;;;2046232;28;20260;-57
2022/02/15 04:18:28;;;;;;;8.27;7.47;;;;;;;;;;2051454;28;20643;-58
2022/02/15 04:19:30;;;;;;;8.77;7.97;;;;;;;;;;2048371;29;20183;-59
2022/02/15 04:20:30;;;;;;;8.10;7.43;;;;;;;;;;2048020;29;20779;-59
2022/02/15 04:21:31;;;;;;;9.23;8.15;;;;;;;;;;2056806;28;20262;-57
2022/02/15 04:22:31;;;;;;;11.70;8.07;;;;;;;;;;2055121;28;20167;-57
2022/02/15 04:23:32;;;;;;;7.82;7.10;;;;;;;;;;2054509;28;20175;-57
2022/02/15 04:24:32;;;;;;;7.83;7.13;;;;;;;;;;2056220;28;20206;-57
2022/02/15 04:25:33;;;;;;;8.15;7.07;;;;;;;;;;2038890;28;20198;-56
2022/02/15 04:26:37;;;;;;;7.83;7.03;;;;;;;;;;2049462;28;20618;-57
2022/02/15 04:27:38;;;;;;;9.18;8.23;;;;;;;;;;2041678;29;20203;-58
2022/02/15 04:28:38;;;;;;;11.20;7.50;;;;;;;;;;2049378;28;20163;-59
2022/02/15 04:29:47;;;;;;;8.02;7.32;;;;;;;;;;2044760;28;20180;-56
2022/02/15 04:30:47;;;;;;;8.13;7.37;;;;;;;;;;2045697;29;20237;-58
2022/02/15 04:31:47;;;;;;;7.90;7.10;;;;;;;;;;2042576;29;20278;-57
2022/02/15 04:32:48;;;;;;;8.80;7.93;;;;;;;;;;2045369;29;20194;-58
2022/02/15 04:33:48;;;;;;;8.23;7.43;;;;;;;;;;2048965;28;20241;-58
2022/02/15 04:34:49;;;;;;;8.53;7.50;;;;;;;;;;2056425;28;20313;-58
2022/02/15 04:35:50;;;;;;;7.85;7.18;;;;;;;;;;2053434;28;20179;-54
2022/02/15 04:36:51;;;;;;;8.02;7.22;;;;;;;;;;2048712;28;20202;-59
2022/02/15 04:37:52;;;;;;;8.82;7.75;;;;;;;;;;2054496;28;20206;-58
2022/02/15 04:38:52;;;;;;;8.45;7.63;;;;;;;;;;2059932;28;20178;-60
2022/02/15 04:39:52;;;;;;;8.32;7.43;;;;;;;;;;2040921;29;20194;-56
2022/02/15 04:40:55;;;;;;;7.93;7.22;;;;;;;;;;2036490;28;20172;-58
2022/02/15 04:41:59;;;;;;;9.20;7.55;;;;;;;;;;2056500;28;20261;-59
2022/02/15 04:43:00;;;;;;;8.32;7.45;;;;;;;;;;2049346;28;20182;-58
2022/02/15 04:44:00;;;;;;;8.60;7.80;;;;;;;;;;2052227;28;20178;-55
2022/02/15 04:45:02;;;;;;;8.77;7.97;;;;;;;;;;2056092;28;20254;-59
2022/02/15 04:46:12;;;;;;;8.77;7.82;;;;;;;;;;2051747;28;20167;-58
2022/02/15 04:47:13;;;;;;;8.20;6.93;;;;;;;;;;2050885;28;20689;-58
2022/02/15 04:48:13;;;;;;;7.90;7.20;;;;;;;;;;2051136;28;20197;-58
2022/02/15 04:49:13;;;;;;;8.30;7.43;;;;;;;;;;2045461;28;20262;-58
2022/02/15 04:50:14;;;;;;;10.73;8.07;;;;;;;;;;2042991;29;20184;-57
2022/02/15 04:51:16;;;;;;;7.97;7.30;;;;;;;;;;2045730;28;20270;-58
2022/02/15 04:52:20;;;;;;;8.88;7.90;;;;;;;;;;2053226;28;20213;-56
2022/02/15 04:53:20;;;;;;;8.27;7.53;;;;;;;;;;2054510;28;20183;-54
2022/02/15 04:54:22;;;;;;;8.05;7.35;;;;;;;;;;2055766;28;20582;-57
2022/02/15 04:55:24;;;;;;;8.90;8.10;;;;;;;;;;2049109;28;20712;-57
2022/02/15 04:56:29;;;;;;;7.65;6.85;;;;;;;;;;2036582;29;20179;-57
2022/02/15 04:57:30;;;;;;;8.32;7.53;;;;;;;;;;2025581;29;20177;-57
2022/02/15 04:58:31;;;;;;;8.40;7.60;;;;;;;;;;2044563;29;20187;-58
2022/02/15 04:59:32;;;;;;;8.20;7.50;;;;;;;;;;2043158;29;20207;-58
2022/02/15 05:00:32;;;;;;;8.25;7.45;;;;;;;;;;2048466;29;20175;-55
2022/02/15 05:01:53;;;;;;;10.02;7.70;;;;;;;;;;2043261;28;20277;-56
2022/02/15 05:02:56;;;;;;;8.00;7.30;;;;;;;;;;2040486;29;20267;-56
2022/02/15 05:03:57;;;;;;;8.68;7.78;;;;;;;;;;2033002;29;20184;-56
2022/02/15 05:04:58;;;;;;;11.45;7.82;;;;;;;;;;2040308;29;20222;-57
2022/02/15 05:06:10;;;;;;;8.30;7.60;;;;;;;;;;2038620;29;20187;-57
2022/02/15 05:07:10;;;;;;;7.13;6.53;;;;;;;;;;2048632;28;20242;-58
2022/02/15 05:08:14;;;;;;;8.05;7.38;;;;;;;;;;2047966;28;20175;-58
2022/02/15 05:09:14;;;;;;;8.27;7.47;;;;;;;;;;2040497;29;20179;-57
2022/02/15 05:10:16;;;;;;;12.45;7.78;;;;;;;;;;2040292;29;20164;-59
2022/02/15 05:11:20;;;;;;;9.80;7.60;;;;;;;;;;2040920;29;20242;-58
2022/02/15 05:12:27;;;;;;;8.70;7.70;;;;;;;;;;2041484;29;20187;-58
2022/02/15 05:13:27;;;;;;;8.60;7.75;;;;;;;;;;2032957;29;20165;-58
2022/02/15 05:14:40;;;;;;;8.80;7.38;;;;;;;;;;2035267;28;20724;-58
2022/02/15 05:15:43;;;;;;;9.82;7.85;;;;;;;;;;2048551;28;20175;-58
2022/02/15 05:16:54;;;;;;;9.00;7.05;;;;;;;;;;2031458;29;20185;-58
2022/02/15 05:17:58;;;;;;;8.60;7.80;;;;;;;;;;2040989;29;20199;-57
2022/02/15 05:18:58;;;;;;;9.07;8.17;;;;;;;;;;2032188;29;20592;-54
2022/02/15 05:20:04;;;;;;;8.70;7.80;;;;;;;;;;2033078;28;22440;-56
2022/02/15 05:21:04;;;;;;;8.43;7.63;;;;;;;;;;2032821;28;20175;-59
2022/02/15 05:22:06;;;;;;;9.98;7.75;;;;;;;;;;2044416;28;20183;-58
2022/02/15 05:23:19;;;;;;;9.23;7.77;;;;;;;;;;2042346;29;20171;-59
2022/02/15 05:24:20;;;;;;;9.10;7.97;;;;;;;;;;2041588;29;20192;-57
2022/02/15 05:25:27;;;;;;;8.30;7.53;;;;;;;;;;2041540;28;20188;-58
2022/02/15 05:26:27;;;;;;;8.68;7.80;;;;;;;;;;2046562;29;20166;-59
2022/02/15 05:27:31;;;;;;;9.23;7.60;;;;;;;;;;2040800;28;20176;-59
2022/02/15 05:28:37;;;;;;;9.52;8.15;;;;;;;;;;2047112;28;20167;-57
2022/02/15 05:29:40;;;;;;;9.38;7.35;;;;;;;;;;2041248;28;20171;-54
2022/02/15 05:30:51;;;;;;;12.07;7.90;;;;;;;;;;2039226;28;20642;-57
2022/02/15 05:31:55;;;;;;;9.40;8.17;;;;;;;;;;2048565;28;20167;-57
2022/02/15 05:32:55;;;;;;;10.80;7.93;;;;;;;;;;2043768;28;20197;-58
2022/02/15 05:33:55;;;;;;;8.18;7.38;;;;;;;;;;2055911;28;20212;-59
2022/02/15 05:34:56;;;;;;;8.38;7.50;;;;;;;;;;2061053;28;20181;-60
2022/02/15 05:35:57;;;;;;;9.18;8.25;;;;;;;;;;2064087;28;20248;-60
2022/02/15 05:36:57;;;;;;;8.63;7.82;;;;;;;;;;2040679;29;20179;-61
2022/02/15 05:37:58;;;;;;;8.57;7.82;;;;;;;;;;2043038;29;20242;-60
2022/02/15 05:39:07;;;;;;;8.53;7.63;;;;;;;;;;2053369;28;20210;-59
2022/02/15 05:40:14;;;;;;;7.80;7.00;;;;;;;;;;2046719;29;20206;-58
2022/02/15 05:41:23;;;;;;;8.00;7.30;;;;;;;;;;2041666;28;20164;-60
2022/02/15 05:42:24;;;;;;;8.83;7.87;;;;;;;;;;2041892;28;20664;-60
2022/02/15 05:43:25;;;;;;;8.30;7.60;;;;;;;;;;2053240;28;20186;-60
2022/02/15 05:44:33;;;;;;;10.93;7.23;;;;;;;;;;2056284;28;20217;-60
2022/02/15 05:45:37;;;;;;;8.10;7.40;;;;;;;;;;2047157;28;20183;-62
2022/02/15 05:46:43;;;;;;;8.63;7.78;;;;;;;;;;2044965;28;20160;-61
2022/02/15 05:47:43;;;;;;;8.43;7.67;;;;;;;;;;2046333;29;20687;-62
2022/02/15 05:48:44;;;;;;;8.70;7.90;;;;;;;;;;2055859;28;20273;-60
2022/02/15 05:51:19;;;;;;;7.70;7.00;;;;;;;;;;2048986;28;20185;-63
2022/02/15 05:52:26;;;;;;;10.98;7.38;;;;;;;;;;2048813;28;20551;-62
2022/02/15 05:53:27;;;;;;;8.67;7.90;;;;;;;;;;2045961;28;20182;-60
2022/02/15 05:54:27;;;;;;;8.00;7.20;;;;;;;;;;2043889;29;20195;-62
2022/02/15 05:55:29;;;;;;;8.00;7.30;;;;;;;;;;2051815;28;20186;-62
2022/02/15 05:56:35;;;;;;;8.30;7.40;;;;;;;;;;2049496;28;20183;-63
2022/02/15 05:57:58;;;;;;;7.53;6.85;;;;;;;;;;2051916;28;20859;-60
2022/02/15 05:58:59;;;;;;;8.63;7.27;;;;;;;;;;2056938;28;20200;-62
2022/02/15 06:00:25;;;;;;;8.25;7.50;;;;;;;;;;2039874;28;20266;-60
2022/02/15 06:01:28;;;;;;;9.57;7.50;;;;;;;;;;2048420;28;20218;-61
2022/02/15 06:02:28;;;;;;;7.87;7.23;;;;;;;;;;2049256;28;20725;-61
2022/02/15 06:04:53;;;;;;;7.13;6.53;;;;;;;;;;2038901;28;20621;-61
2022/02/15 06:06:01;;;;;;;7.47;6.70;;;;;;;;;;2041282;29;20186;-61
2022/02/15 06:07:04;;;;;;;8.70;7.70;;;;;;;;;;2047645;28;20311;-61
2022/02/15 06:08:05;;;;;;;7.93;7.13;;;;;;;;;;2057961;28;20225;-61
2022/02/15 06:09:10;;;;;;;8.67;7.80;;;;;;;;;;2049400;28;20171;-62
2022/02/15 06:10:14;;;;;;;9.73;7.93;;;;;;;;;;2041468;28;20668;-63
2022/02/15 06:11:18;;;;;;;7.50;6.80;;;;;;;;;;2041286;29;20172;-64
2022/02/15 06:12:20;;;;;;;7.57;6.87;;;;;;;;;;2047659;28;20229;-60
2022/02/15 06:13:34;;;;;;;8.43;7.63;;;;;;;;;;2048232;29;20554;-61
2022/02/15 06:14:40;;;;;;;9.13;7.47;;;;;;;;;;2035411;29;20180;-63
2022/02/15 06:15:44;;;;;;;8.75;7.85;;;;;;;;;;2039583;29;20172;-61
2022/02/15 06:16:48;;;;;;;8.83;8.03;;;;;;;;;;2031942;29;20180;-62
2022/02/15 06:17:56;;;;;;;9.17;7.67;;;;;;;;;;2035052;29;20247;-61